Olean, NY

4:38 PM EDT on April 25, 2017 (GMT -0400)
Cattaraugus County-Olean

Weather History for KOLE - October, 2013

Change the Weather History Date:

Saturday, October 26, 2013

  Actual Average (KBFD) Record (KBFD)
Temperature  
Mean Temperature 36 °F -  
Max Temperature 41 °F 52 °F 76 °F (1991)
Min Temperature 32 °F 34 °F 19 °F (1987)
Degree Days  
Heating Degree Days 28    
Moisture  
Dew Point 28 °F    
Average Humidity 74    
Maximum Humidity 93    
Minimum Humidity 57    
Precipitation  
Precipitation 0.00 in - - ()
Sea Level Pressure  
Sea Level Pressure 29.90 in    
Wind  
Wind Speed 10 mph (SW)    
Max Wind Speed 17 mph    
Max Gust Speed 32 mph    
Visibility 10 miles    
Events Rain , Snow    
Averages and records for this station are not official NWS values.
T = Trace of Precipitation, MM = Missing Value Source: NWS Daily Summary

Daily Weather History Graph

Daily Weather History Graph

Search for Another Location

Airport or City:

Trip Planner

Search our weather history database for the weather conditions in past years. The results will help you decide how hot, cold, wet, or windy it might be!

Date:

Astronomy

Oct. 26, 2013 Rise Set
Actual Time 7:39 AM EDT 6:14 PM EDT
Civil Twilight 7:10 AM EDT 6:43 PM EDT
Nautical Twilight 6:37 AM EDT 7:16 PM EDT
Astronomical Twilight 6:05 AM EDT 7:48 PM EDT
Moon No Moon Rise 1:55 PM EDT (10/26)
Length of Visible Light 11h 32m
Length of Day
10h 35m
Waning Gibbous, 53% of the Moon is Illuminated
Oct 26
Waning Gibbous
Oct 26
Last Quarter
Nov 3
New
Nov 10
First Quarter
Nov 17
Full

Hourly Weather History & Observations

Time (EDT) Temp. Windchill Dew Point Humidity Pressure Visibility Wind Dir Wind Speed Gust Speed Precip Events Conditions
12:15 AM 33.8 °F 27.0 °F 28.4 °F 81% 30.10 in 10.0 mi WSW 8.1 mph - N/A   Overcast
12:35 AM 33.8 °F 27.0 °F 28.4 °F 81% 30.10 in 10.0 mi WSW 8.1 mph 16.1 mph N/A   Overcast
12:55 AM 33.8 °F 28.6 °F 28.4 °F 81% 30.10 in 10.0 mi SW 5.8 mph - N/A   Overcast
1:15 AM 35.6 °F 28.6 °F 28.4 °F 75% 30.09 in 10.0 mi WSW 9.2 mph 18.4 mph N/A   Overcast
1:35 AM 35.6 °F 28.6 °F 28.4 °F 75% 30.09 in 10.0 mi WSW 9.2 mph 16.1 mph N/A   Overcast
1:55 AM 35.6 °F 28.6 °F 26.6 °F 70% 30.08 in 10.0 mi WSW 9.2 mph 20.7 mph N/A   Overcast
2:15 AM 33.8 °F 25.8 °F 26.6 °F 75% 30.08 in 10.0 mi WSW 10.4 mph 19.6 mph N/A   Overcast
2:35 AM 33.8 °F 25.8 °F 26.6 °F 75% 30.06 in 10.0 mi WSW 10.4 mph 23.0 mph N/A   Overcast
2:55 AM 33.8 °F 26.4 °F 26.6 °F 75% 30.06 in 10.0 mi SW 9.2 mph - N/A   Scattered Clouds
3:15 AM 33.8 °F 27.0 °F 26.6 °F 75% 30.05 in 10.0 mi SW 8.1 mph - N/A   Mostly Cloudy
3:35 AM 33.8 °F 27.0 °F 26.6 °F 75% 30.05 in 10.0 mi SW 8.1 mph - N/A   Overcast
3:55 AM 33.8 °F 26.4 °F 26.6 °F 75% 30.04 in 10.0 mi WSW 9.2 mph 17.3 mph N/A   Mostly Cloudy
4:15 AM 32.0 °F 23.6 °F 26.6 °F 80% 30.03 in 10.0 mi SW 10.4 mph - N/A   Scattered Clouds
4:35 AM 32.0 °F 26.4 °F 26.6 °F 80% 30.02 in 10.0 mi SW 5.8 mph - N/A   Scattered Clouds
4:55 AM 32.0 °F 24.8 °F 26.6 °F 80% 30.02 in 10.0 mi SW 8.1 mph - N/A   Mostly Cloudy
5:15 AM 32.0 °F 24.8 °F 26.6 °F 80% 30.00 in 10.0 mi SW 8.1 mph - N/A   Overcast
5:35 AM 32.0 °F 23.0 °F 26.6 °F 80% 29.99 in 10.0 mi SW 11.5 mph 18.4 mph N/A   Overcast
5:55 AM 32.0 °F 22.1 °F 26.6 °F 80% 29.99 in 10.0 mi SSW 13.8 mph 18.4 mph N/A   Overcast
6:15 AM 32.0 °F 23.0 °F 26.6 °F 80% 29.97 in 10.0 mi SSW 11.5 mph 21.9 mph N/A   Overcast
6:35 AM 32.0 °F 24.8 °F 26.6 °F 80% 29.97 in 10.0 mi SW 8.1 mph 18.4 mph N/A   Overcast
6:55 AM 32.0 °F 23.6 °F 24.8 °F 75% 29.96 in 10.0 mi SW 10.4 mph 17.3 mph N/A   Mostly Cloudy
7:15 AM 32.0 °F 23.6 °F 24.8 °F 75% 29.96 in 10.0 mi WSW 10.4 mph 24.2 mph N/A   Scattered Clouds
7:35 AM 32.0 °F 23.6 °F 24.8 °F 75% 29.95 in 10.0 mi SW 10.4 mph 16.1 mph N/A   Scattered Clouds
7:55 AM 32.0 °F 23.6 °F 24.8 °F 75% 29.94 in 10.0 mi SW 10.4 mph 16.1 mph N/A   Clear
8:15 AM 32.0 °F 23.0 °F 24.8 °F 75% 29.92 in 10.0 mi SW 11.5 mph 18.4 mph N/A   Clear
8:35 AM 32.0 °F 23.6 °F 24.8 °F 75% 29.92 in 10.0 mi SW 10.4 mph 32.2 mph N/A   Clear
8:55 AM 32.0 °F 23.0 °F 24.8 °F 75% 29.92 in 10.0 mi SW 11.5 mph 24.2 mph N/A   Clear
9:15 AM 33.8 °F 25.8 °F 24.8 °F 70% 29.92 in 10.0 mi WSW 10.4 mph 19.6 mph N/A   Clear
9:35 AM 33.8 °F 23.5 °F 24.8 °F 70% 29.90 in 10.0 mi SW 16.1 mph 25.3 mph N/A   Clear
9:55 AM 33.8 °F 26.4 °F 26.6 °F 75% 29.91 in 10.0 mi SW 9.2 mph 26.5 mph N/A   Scattered Clouds
10:15 AM 33.8 °F 23.5 °F 26.6 °F 75% 29.89 in 10.0 mi SW 16.1 mph 26.5 mph N/A   Mostly Cloudy
10:35 AM 35.6 °F 26.6 °F 26.6 °F 70% 29.88 in 10.0 mi SW 13.8 mph 25.3 mph N/A   Mostly Cloudy
10:55 AM 35.6 °F 25.5 °F 26.6 °F 70% 29.88 in 10.0 mi SW 17.3 mph 24.2 mph N/A   Scattered Clouds
11:15 AM 37.4 °F 28.5 °F 26.6 °F 65% 29.87 in 10.0 mi SW 15.0 mph 26.5 mph N/A   Scattered Clouds
11:35 AM 37.4 °F 28.5 °F 26.6 °F 65% 29.85 in 10.0 mi SW 15.0 mph 28.8 mph N/A   Mostly Cloudy
11:55 AM 39.2 °F 31.6 °F 26.6 °F 61% 29.85 in 10.0 mi SW 12.7 mph 23.0 mph N/A   Scattered Clouds
12:15 PM 41.0 °F 32.5 °F 26.6 °F 57% 29.85 in 10.0 mi SSW 17.3 mph 24.2 mph N/A   Mostly Cloudy
12:35 PM 37.4 °F 27.8 °F 24.8 °F 60% 29.83 in 10.0 mi SSW 17.3 mph 26.5 mph N/A   Overcast
12:55 PM 39.2 °F 30.8 °F 26.6 °F 61% 29.82 in 10.0 mi SSW 15.0 mph 20.7 mph N/A   Overcast
1:15 PM 39.2 °F 31.6 °F 26.6 °F 61% 29.81 in 10.0 mi SW 12.7 mph 32.2 mph N/A   Overcast
1:35 PM 39.2 °F 31.2 °F 26.6 °F 61% 29.81 in 10.0 mi SW 13.8 mph 21.9 mph N/A   Overcast
1:55 PM 39.2 °F 33.6 °F 26.6 °F 61% 29.80 in 10.0 mi SW 8.1 mph 16.1 mph N/A   Overcast
2:15 PM 39.2 °F 32.5 °F 26.6 °F 61% 29.80 in 10.0 mi SW 10.4 mph 21.9 mph N/A   Overcast
2:35 PM 39.2 °F 33.0 °F 26.6 °F 61% 29.81 in 10.0 mi WSW 9.2 mph 16.1 mph N/A   Overcast
2:55 PM 39.2 °F 32.0 °F 26.6 °F 61% 29.80 in 10.0 mi SW 11.5 mph 23.0 mph N/A   Overcast
3:15 PM 39.2 °F 33.6 °F 26.6 °F 61% 29.80 in 10.0 mi WSW 8.1 mph 18.4 mph N/A   Overcast
3:35 PM 39.2 °F 32.5 °F 26.6 °F 61% 29.80 in 10.0 mi SW 10.4 mph 20.7 mph N/A   Overcast
3:55 PM 39.2 °F 32.0 °F 26.6 °F 61% 29.80 in 10.0 mi SW 11.5 mph 19.6 mph N/A   Unknown
4:15 PM 37.4 °F 31.4 °F 28.4 °F 70% 29.80 in 10.0 mi SW 8.1 mph 19.6 mph N/A Snow Light Snow
4:35 PM 37.4 °F 30.8 °F 28.4 °F 70% 29.79 in 10.0 mi SW 9.2 mph 17.3 mph N/A   Overcast
4:55 PM 37.4 °F 30.3 °F 28.4 °F 70% 29.80 in 10.0 mi WSW 10.4 mph 23.0 mph N/A   Overcast
5:15 PM 37.4 °F 31.4 °F 28.4 °F 70% 29.80 in 10.0 mi WSW 8.1 mph 19.6 mph N/A   Overcast
5:35 PM 37.4 °F 31.4 °F 28.4 °F 70% 29.80 in 10.0 mi SW 8.1 mph - N/A Snow Light Snow
5:55 PM 37.4 °F 29.8 °F 28.4 °F 70% 29.80 in 10.0 mi SW 11.5 mph 16.1 mph N/A   Overcast
6:15 PM 37.4 °F 30.8 °F 28.4 °F 70% 29.81 in 10.0 mi SW 9.2 mph - N/A   Overcast
6:35 PM 37.4 °F 29.3 °F 28.4 °F 70% 29.82 in 10.0 mi SW 12.7 mph 16.1 mph N/A   Overcast
6:55 PM 35.6 °F 27.5 °F 30.2 °F 81% 29.82 in 10.0 mi WSW 11.5 mph 18.4 mph N/A   Overcast
7:15 PM 35.6 °F 28.6 °F 30.2 °F 81% 29.82 in 10.0 mi SW 9.2 mph 17.3 mph N/A   Overcast
7:35 PM 35.6 °F 27.1 °F 30.2 °F 81% 29.82 in 10.0 mi SW 12.7 mph 18.4 mph N/A   Overcast
7:55 PM 35.6 °F 27.5 °F 30.2 °F 81% 29.82 in 10.0 mi SW 11.5 mph 17.3 mph N/A   Overcast
8:15 PM 35.6 °F 28.6 °F 30.2 °F 81% 29.81 in 10.0 mi SW 9.2 mph 17.3 mph N/A   Overcast
8:35 PM 35.6 °F 26.6 °F 30.2 °F 81% 29.80 in 10.0 mi SW 13.8 mph 23.0 mph N/A   Overcast
8:55 PM 35.6 °F 28.6 °F 30.2 °F 81% 29.79 in 10.0 mi SW 9.2 mph 18.4 mph N/A   Mostly Cloudy
9:15 PM 35.6 °F 27.1 °F 30.2 °F 81% 29.79 in 10.0 mi SW 12.7 mph 17.3 mph N/A   Overcast
9:35 PM 35.6 °F 28.6 °F 30.2 °F 81% 29.79 in 10.0 mi SW 9.2 mph 18.4 mph N/A   Overcast
9:55 PM 35.6 °F 29.9 °F 30.2 °F 81% 29.80 in 10.0 mi WSW 6.9 mph - N/A   Overcast
10:15 PM 35.6 °F 29.2 °F 30.2 °F 81% 29.81 in 10.0 mi WSW 8.1 mph 17.3 mph N/A Snow Light Snow
10:35 PM 35.6 °F 29.2 °F 32.0 °F 87% 29.82 in 10.0 mi WSW 8.1 mph 17.3 mph N/A Rain Light Rain
10:55 PM 33.8 °F 27.7 °F 32.0 °F 93% 29.82 in 5.0 mi WSW 6.9 mph - N/A Snow Light Snow
11:15 PM 33.8 °F 27.7 °F 32.0 °F 93% 29.82 in 10.0 mi WSW 6.9 mph - N/A Rain Light Rain
11:35 PM 33.8 °F 27.7 °F 32.0 °F 93% 29.82 in 10.0 mi WSW 6.9 mph - N/A Rain Light Rain
11:55 PM 33.8 °F 27.0 °F 32.0 °F 93% 29.82 in 7.0 mi WSW 8.1 mph - N/A Snow Light Snow